sensor_id;sensor_type;location;lat;lon;timestamp;pressure;altitude;pressure_sealevel;temperature;humidity
52227;BME280;38190;59.928;10.446;2022-08-21T00:02:24;100181.16;;;15.01;66.15
52227;BME280;38190;59.928;10.446;2022-08-21T00:05:26;100186.19;;;15.11;65.41
52227;BME280;38190;59.928;10.446;2022-08-21T00:08:27;100189.84;;;15.06;65.91
52227;BME280;38190;59.928;10.446;2022-08-21T00:11:27;100181.34;;;14.93;66.53
52227;BME280;38190;59.928;10.446;2022-08-21T00:14:28;100195.31;;;14.98;65.92
52227;BME280;38190;59.928;10.446;2022-08-21T00:17:28;100194.00;;;14.79;67.31
52227;BME280;38190;59.928;10.446;2022-08-21T00:20:29;100197.94;;;14.57;67.33
52227;BME280;38190;59.928;10.446;2022-08-21T00:23:30;100198.09;;;14.06;70.76
52227;BME280;38190;59.928;10.446;2022-08-21T00:26:30;100189.47;;;13.96;71.09
52227;BME280;38190;59.928;10.446;2022-08-21T00:29:31;100195.41;;;13.61;73.42
52227;BME280;38190;59.928;10.446;2022-08-21T00:32:31;100201.69;;;12.95;79.32
52227;BME280;38190;59.928;10.446;2022-08-21T00:35:37;100195.75;;;13.41;76.03
52227;BME280;38190;59.928;10.446;2022-08-21T00:38:38;100204.75;;;12.64;82.49
52227;BME280;38190;59.928;10.446;2022-08-21T00:41:39;100197.50;;;12.81;78.16
52227;BME280;38190;59.928;10.446;2022-08-21T00:44:45;100198.19;;;12.26;84.33
52227;BME280;38190;59.928;10.446;2022-08-21T00:47:48;100209.22;;;11.75;87.54
52227;BME280;38190;59.928;10.446;2022-08-21T00:50:54;100202.25;;;11.72;86.43
52227;BME280;38190;59.928;10.446;2022-08-21T00:53:58;100210.41;;;11.41;89.62
52227;BME280;38190;59.928;10.446;2022-08-21T00:57:03;100210.50;;;11.29;91.95
52227;BME280;38190;59.928;10.446;2022-08-21T01:00:07;100204.50;;;11.08;91.53
52227;BME280;38190;59.928;10.446;2022-08-21T01:03:14;100213.44;;;10.83;94.12
52227;BME280;38190;59.928;10.446;2022-08-21T01:06:14;100219.75;;;10.48;97.15
52227;BME280;38190;59.928;10.446;2022-08-21T01:09:15;100207.50;;;10.41;97.44
52227;BME280;38190;59.928;10.446;2022-08-21T01:12:16;100207.47;;;10.50;95.46
52227;BME280;38190;59.928;10.446;2022-08-21T01:15:16;100201.38;;;10.42;95.63
52227;BME280;38190;59.928;10.446;2022-08-21T01:18:19;100209.31;;;10.22;98.43
52227;BME280;38190;59.928;10.446;2022-08-21T01:21:24;100220.63;;;10.31;97.85
52227;BME280;38190;59.928;10.446;2022-08-21T01:24:24;100218.91;;;10.37;96.82
52227;BME280;38190;59.928;10.446;2022-08-21T01:27:25;100213.69;;;10.21;97.70
52227;BME280;38190;59.928;10.446;2022-08-21T01:30:27;100220.66;;;10.18;97.96
52227;BME280;38190;59.928;10.446;2022-08-21T01:33:28;100211.09;;;10.04;99.96
52227;BME280;38190;59.928;10.446;2022-08-21T01:36:28;100215.41;;;10.22;98.34
52227;BME280;38190;59.928;10.446;2022-08-21T01:39:29;100212.78;;;10.27;97.94
52227;BME280;38190;59.928;10.446;2022-08-21T01:42:29;100218.03;;;10.21;98.26
52227;BME280;38190;59.928;10.446;2022-08-21T01:45:30;100224.16;;;10.33;97.67
52227;BME280;38190;59.928;10.446;2022-08-21T01:48:30;100229.38;;;10.26;98.51
52227;BME280;38190;59.928;10.446;2022-08-21T01:51:31;100226.81;;;10.09;100.00
52227;BME280;38190;59.928;10.446;2022-08-21T01:54:32;100226.81;;;10.21;100.00
52227;BME280;38190;59.928;10.446;2022-08-21T01:57:33;100233.81;;;10.11;100.00
52227;BME280;38190;59.928;10.446;2022-08-21T02:00:34;100226.81;;;10.09;100.00
52227;BME280;38190;59.928;10.446;2022-08-21T02:03:35;100220.66;;;10.24;100.00
52227;BME280;38190;59.928;10.446;2022-08-21T02:06:36;100232.91;;;10.23;100.00
52227;BME280;38190;59.928;10.446;2022-08-21T02:09:37;100232.00;;;10.27;100.00
52227;BME280;38190;59.928;10.446;2022-08-21T02:12:37;100223.22;;;10.51;97.83
52227;BME280;38190;59.928;10.446;2022-08-21T02:15:38;100220.63;;;10.44;99.59
52227;BME280;38190;59.928;10.446;2022-08-21T02:18:38;100226.75;;;10.30;100.00
52227;BME280;38190;59.928;10.446;2022-08-21T02:21:39;100220.66;;;10.16;100.00
52227;BME280;38190;59.928;10.446;2022-08-21T02:24:40;100222.41;;;10.22;100.00
52227;BME280;38190;59.928;10.446;2022-08-21T02:27:42;100218.09;;;10.04;100.00
52227;BME280;38190;59.928;10.446;2022-08-21T02:30:44;100218.09;;;9.93;100.00
52227;BME280;38190;59.928;10.446;2022-08-21T02:33:45;100215.50;;;9.79;100.00
52227;BME280;38190;59.928;10.446;2022-08-21T02:36:46;100217.28;;;9.58;100.00
52227;BME280;38190;59.928;10.446;2022-08-21T02:39:46;100212.88;;;9.77;100.00
52227;BME280;38190;59.928;10.446;2022-08-21T02:42:47;100221.63;;;9.55;100.00
52227;BME280;38190;59.928;10.446;2022-08-21T02:45:48;100214.66;;;9.55;100.00
52227;BME280;38190;59.928;10.446;2022-08-21T02:48:48;100218.16;;;9.37;100.00
52227;BME280;38190;59.928;10.446;2022-08-21T02:51:49;100215.53;;;9.42;100.00
52227;BME280;38190;59.928;10.446;2022-08-21T02:54:50;100221.66;;;9.49;100.00
52227;BME280;38190;59.928;10.446;2022-08-21T02:57:51;100202.44;;;9.57;100.00
52227;BME280;38190;59.928;10.446;2022-08-21T03:00:51;100198.94;;;9.31;100.00
52227;BME280;38190;59.928;10.446;2022-08-21T03:03:52;100198.06;;;9.42;100.00
52227;BME280;38190;59.928;10.446;2022-08-21T03:06:53;100204.19;;;9.32;100.00
52227;BME280;38190;59.928;10.446;2022-08-21T03:09:54;100217.28;;;9.37;100.00
52227;BME280;38190;59.928;10.446;2022-08-21T03:12:54;100204.19;;;9.35;100.00
52227;BME280;38190;59.928;10.446;2022-08-21T03:15:55;100200.69;;;9.36;100.00
52227;BME280;38190;59.928;10.446;2022-08-21T03:18:56;100199.81;;;9.42;100.00
52227;BME280;38190;59.928;10.446;2022-08-21T03:21:57;100205.06;;;9.45;100.00
52227;BME280;38190;59.928;10.446;2022-08-21T03:24:58;100193.69;;;9.40;100.00
52227;BME280;38190;59.928;10.446;2022-08-21T03:28:04;100189.34;;;9.33;100.00
52227;BME280;38190;59.928;10.446;2022-08-21T03:31:05;100185.84;;;9.15;100.00
52227;BME280;38190;59.928;10.446;2022-08-21T03:34:06;100194.56;;;9.11;100.00
52227;BME280;38190;59.928;10.446;2022-08-21T03:37:07;100198.94;;;9.20;100.00
52227;BME280;38190;59.928;10.446;2022-08-21T03:40:09;100204.19;;;9.12;100.00
52227;BME280;38190;59.928;10.446;2022-08-21T03:43:10;100195.44;;;9.05;100.00
52227;BME280;38190;59.928;10.446;2022-08-21T03:46:11;100200.69;;;9.18;100.00
52227;BME280;38190;59.928;10.446;2022-08-21T03:49:11;100196.31;;;9.24;100.00
52227;BME280;38190;59.928;10.446;2022-08-21T03:52:12;100193.69;;;9.24;100.00
52227;BME280;38190;59.928;10.446;2022-08-21T03:55:12;100189.34;;;9.36;100.00
52227;BME280;38190;59.928;10.446;2022-08-21T03:58:15;100185.84;;;9.21;100.00
52227;BME280;38190;59.928;10.446;2022-08-21T04:01:16;100193.69;;;8.92;100.00
52227;BME280;38190;59.928;10.446;2022-08-21T04:04:17;100184.94;;;8.84;100.00
52227;BME280;38190;59.928;10.446;2022-08-21T04:07:17;100178.84;;;8.96;100.00
52227;BME280;38190;59.928;10.446;2022-08-21T04:10:18;100190.19;;;8.99;100.00
52227;BME280;38190;59.928;10.446;2022-08-21T04:13:19;100196.31;;;9.12;100.00
52227;BME280;38190;59.928;10.446;2022-08-21T04:16:20;100195.44;;;9.07;100.00
52227;BME280;38190;59.928;10.446;2022-08-21T04:19:20;100202.41;;;8.97;100.00
52227;BME280;38190;59.928;10.446;2022-08-21T04:22:21;100206.78;;;9.03;100.00
52227;BME280;38190;59.928;10.446;2022-08-21T04:25:22;100210.25;;;9.08;100.00
52227;BME280;38190;59.928;10.446;2022-08-21T04:28:25;100217.25;;;9.21;100.00
52227;BME280;38190;59.928;10.446;2022-08-21T04:31:26;100222.50;;;9.46;100.00
52227;BME280;38190;59.928;10.446;2022-08-21T04:34:28;100219.00;;;9.55;100.00
52227;BME280;38190;59.928;10.446;2022-08-21T04:37:30;100227.75;;;9.71;100.00
52227;BME280;38190;59.928;10.446;2022-08-21T04:40:30;100207.66;;;9.74;100.00
52227;BME280;38190;59.928;10.446;2022-08-21T04:43:31;100212.88;;;9.82;100.00
52227;BME280;38190;59.928;10.446;2022-08-21T04:46:31;100217.28;;;9.71;100.00
52227;BME280;38190;59.928;10.446;2022-08-21T04:49:32;100200.69;;;9.72;100.00
52227;BME280;38190;59.928;10.446;2022-08-21T04:52:33;100215.50;;;9.81;100.00
52227;BME280;38190;59.928;10.446;2022-08-21T04:55:33;100206.78;;;9.83;100.00
52227;BME280;38190;59.928;10.446;2022-08-21T04:58:36;100197.16;;;9.87;100.00
52227;BME280;38190;59.928;10.446;2022-08-21T05:01:40;100193.69;;;9.77;100.00
52227;BME280;38190;59.928;10.446;2022-08-21T05:04:50;100187.56;;;9.75;100.00
52227;BME280;38190;59.928;10.446;2022-08-21T05:07:52;100186.66;;;9.85;100.00
52227;BME280;38190;59.928;10.446;2022-08-21T05:10:54;100185.75;;;10.05;100.00
52227;BME280;38190;59.928;10.446;2022-08-21T05:13:54;100182.16;;;10.24;100.00
52227;BME280;38190;59.928;10.446;2022-08-21T05:16:55;100176.91;;;10.30;100.00
52227;BME280;38190;59.928;10.446;2022-08-21T05:19:56;100172.41;;;10.62;100.00
52227;BME280;38190;59.928;10.446;2022-08-21T05:22:56;100176.69;;;10.83;99.44
52227;BME280;38190;59.928;10.446;2022-08-21T05:25:56;100171.47;;;10.77;99.06
52227;BME280;38190;59.928;10.446;2022-08-21T05:28:57;100174.88;;;10.89;98.32
52227;BME280;38190;59.928;10.446;2022-08-21T05:31:58;100166.03;;;11.01;97.50
52227;BME280;38190;59.928;10.446;2022-08-21T05:34:59;100161.50;;;11.22;96.75
52227;BME280;38190;59.928;10.446;2022-08-21T05:38:00;100174.19;;;11.73;97.05
52227;BME280;38190;59.928;10.446;2022-08-21T05:41:01;100179.16;;;12.05;95.92
52227;BME280;38190;59.928;10.446;2022-08-21T05:44:01;100172.88;;;12.15;93.73
52227;BME280;38190;59.928;10.446;2022-08-21T05:47:07;100171.31;;;12.69;93.42
52227;BME280;38190;59.928;10.446;2022-08-21T05:50:08;100170.88;;;13.00;91.25
52227;BME280;38190;59.928;10.446;2022-08-21T05:53:09;100167.44;;;13.52;93.36
52227;BME280;38190;59.928;10.446;2022-08-21T05:56:11;100173.41;;;14.10;89.12
52227;BME280;38190;59.928;10.446;2022-08-21T05:59:12;100171.22;;;14.31;85.96
52227;BME280;38190;59.928;10.446;2022-08-21T06:02:13;100166.22;;;14.17;89.88
52227;BME280;38190;59.928;10.446;2022-08-21T06:05:13;100164.63;;;14.07;86.91
52227;BME280;38190;59.928;10.446;2022-08-21T06:08:15;100163.75;;;14.08;85.52
52227;BME280;38190;59.928;10.446;2022-08-21T06:11:16;100166.22;;;14.17;86.53
52227;BME280;38190;59.928;10.446;2022-08-21T06:14:17;100166.91;;;14.27;88.92
52227;BME280;38190;59.928;10.446;2022-08-21T06:17:18;100174.00;;;14.67;88.83
52227;BME280;38190;59.928;10.446;2022-08-21T06:20:18;100166.94;;;15.06;87.35
52227;BME280;38190;59.928;10.446;2022-08-21T06:23:19;100175.06;;;14.58;89.62
52227;BME280;38190;59.928;10.446;2022-08-21T06:26:19;100167.81;;;14.66;88.97
52227;BME280;38190;59.928;10.446;2022-08-21T06:29:21;100167.44;;;14.85;87.16
52227;BME280;38190;59.928;10.446;2022-08-21T06:32:22;100166.31;;;14.53;88.24
52227;BME280;38190;59.928;10.446;2022-08-21T06:35:23;100169.63;;;14.22;90.44
52227;BME280;38190;59.928;10.446;2022-08-21T06:38:24;100164.78;;;14.43;88.80
52227;BME280;38190;59.928;10.446;2022-08-21T06:41:25;100152.41;;;14.45;87.25
52227;BME280;38190;59.928;10.446;2022-08-21T06:44:25;100146.47;;;14.77;88.99
52227;BME280;38190;59.928;10.446;2022-08-21T06:47:26;100149.63;;;14.93;87.21
52227;BME280;38190;59.928;10.446;2022-08-21T06:50:26;100131.53;;;15.12;87.10
52227;BME280;38190;59.928;10.446;2022-08-21T06:53:27;100136.22;;;15.37;86.69
52227;BME280;38190;59.928;10.446;2022-08-21T06:56:28;100137.13;;;16.33;85.68
52227;BME280;38190;59.928;10.446;2022-08-21T06:59:28;100123.72;;;16.97;82.73
52227;BME280;38190;59.928;10.446;2022-08-21T07:02:29;100130.91;;;17.97;81.21
52227;BME280;38190;59.928;10.446;2022-08-21T07:05:29;100123.97;;;17.93;77.35
52227;BME280;38190;59.928;10.446;2022-08-21T07:08:30;100114.31;;;18.61;74.81
52227;BME280;38190;59.928;10.446;2022-08-21T07:11:30;100113.75;;;19.83;70.72
52227;BME280;38190;59.928;10.446;2022-08-21T07:14:31;100112.47;;;18.63;72.05
52227;BME280;38190;59.928;10.446;2022-08-21T07:17:32;100105.47;;;19.27;72.59
52227;BME280;38190;59.928;10.446;2022-08-21T07:20:33;100096.75;;;20.63;68.17
52227;BME280;38190;59.928;10.446;2022-08-21T07:23:37;100106.16;;;20.89;64.58
52227;BME280;38190;59.928;10.446;2022-08-21T07:26:39;100094.00;;;21.01;63.17
52227;BME280;38190;59.928;10.446;2022-08-21T07:29:40;100083.59;;;20.58;67.57
52227;BME280;38190;59.928;10.446;2022-08-21T07:32:40;100081.66;;;20.05;68.06
52227;BME280;38190;59.928;10.446;2022-08-21T07:35:41;100071.47;;;19.54;70.42
52227;BME280;38190;59.928;10.446;2022-08-21T07:38:41;100091.69;;;19.59;70.78
52227;BME280;38190;59.928;10.446;2022-08-21T07:41:42;100079.78;;;20.45;68.84
52227;BME280;38190;59.928;10.446;2022-08-21T07:44:42;100089.50;;;19.89;73.28
52227;BME280;38190;59.928;10.446;2022-08-21T07:47:43;100075.69;;;20.00;69.98
52227;BME280;38190;59.928;10.446;2022-08-21T07:50:43;100082.41;;;19.06;72.99
52227;BME280;38190;59.928;10.446;2022-08-21T07:53:49;100086.03;;;18.37;74.77
52227;BME280;38190;59.928;10.446;2022-08-21T07:56:50;100082.06;;;18.01;78.09
52227;BME280;38190;59.928;10.446;2022-08-21T07:59:50;100079.06;;;17.87;77.49
52227;BME280;38190;59.928;10.446;2022-08-21T08:02:52;100084.31;;;17.63;79.10
52227;BME280;38190;59.928;10.446;2022-08-21T08:05:54;100079.66;;;17.45;79.46
52227;BME280;38190;59.928;10.446;2022-08-21T08:08:54;100084.22;;;17.41;80.94
52227;BME280;38190;59.928;10.446;2022-08-21T08:11:55;100079.22;;;17.32;81.20
52227;BME280;38190;59.928;10.446;2022-08-21T08:14:57;100077.53;;;17.29;80.86
52227;BME280;38190;59.928;10.446;2022-08-21T08:17:57;100080.38;;;17.25;81.72
52227;BME280;38190;59.928;10.446;2022-08-21T08:20:58;100074.41;;;17.18;81.17
52227;BME280;38190;59.928;10.446;2022-08-21T08:24:00;100075.59;;;17.08;81.96
52227;BME280;38190;59.928;10.446;2022-08-21T08:27:00;100080.91;;;17.08;82.71
52227;BME280;38190;59.928;10.446;2022-08-21T08:30:01;100077.84;;;17.20;82.65
52227;BME280;38190;59.928;10.446;2022-08-21T08:33:01;100073.47;;;17.19;82.30
52227;BME280;38190;59.928;10.446;2022-08-21T08:36:02;100079.66;;;17.45;82.34
52227;BME280;38190;59.928;10.446;2022-08-21T08:39:04;100073.38;;;17.73;81.89
52227;BME280;38190;59.928;10.446;2022-08-21T08:42:16;100052.50;;;17.87;80.54
52227;BME280;38190;59.928;10.446;2022-08-21T08:45:21;100062.00;;;17.94;79.71
52227;BME280;38190;59.928;10.446;2022-08-21T08:48:51;100058.69;;;17.62;81.54
52227;BME280;38190;59.928;10.446;2022-08-21T08:52:06;100038.34;;;17.38;80.43
52227;BME280;38190;59.928;10.446;2022-08-21T08:55:18;100040.75;;;17.69;81.81
52227;BME280;38190;59.928;10.446;2022-08-21T08:58:29;100037.00;;;18.22;80.49
52227;BME280;38190;59.928;10.446;2022-08-21T09:01:34;100040.72;;;18.18;79.83
52227;BME280;38190;59.928;10.446;2022-08-21T09:04:35;100039.25;;;18.33;78.59
52227;BME280;38190;59.928;10.446;2022-08-21T09:07:53;100034.22;;;18.49;77.00
52227;BME280;38190;59.928;10.446;2022-08-21T09:11:19;100022.63;;;19.14;76.16
52227;BME280;38190;59.928;10.446;2022-08-21T09:14:39;100022.06;;;19.68;73.59
52227;BME280;38190;59.928;10.446;2022-08-21T09:24:37;100027.78;;;19.79;71.78
52227;BME280;38190;59.928;10.446;2022-08-21T09:27:40;100028.56;;;19.42;71.75
52227;BME280;38190;59.928;10.446;2022-08-21T09:30:41;100035.03;;;18.71;77.30
52227;BME280;38190;59.928;10.446;2022-08-21T09:33:42;100033.56;;;18.20;77.32
52227;BME280;38190;59.928;10.446;2022-08-21T09:36:45;100031.69;;;18.22;76.77
52227;BME280;38190;59.928;10.446;2022-08-21T09:39:47;100034.38;;;17.98;79.90
52227;BME280;38190;59.928;10.446;2022-08-21T09:42:56;100040.41;;;17.55;80.50
52227;BME280;38190;59.928;10.446;2022-08-21T09:46:12;100035.56;;;17.41;81.47
52227;BME280;38190;59.928;10.446;2022-08-21T09:49:34;100033.97;;;17.37;83.53
52227;BME280;38190;59.928;10.446;2022-08-21T09:52:46;100022.75;;;17.28;82.44
52227;BME280;38190;59.928;10.446;2022-08-21T09:55:52;100037.88;;;17.26;82.05
52227;BME280;38190;59.928;10.446;2022-08-21T09:59:14;100035.81;;;17.34;82.35
52227;BME280;38190;59.928;10.446;2022-08-21T10:02:32;100031.88;;;17.21;83.38
52227;BME280;38190;59.928;10.446;2022-08-21T10:05:33;100024.47;;;17.04;84.52
52227;BME280;38190;59.928;10.446;2022-08-21T10:08:36;100012.50;;;17.18;83.97
52227;BME280;38190;59.928;10.446;2022-08-21T10:11:37;100015.88;;;17.48;80.82
52227;BME280;38190;59.928;10.446;2022-08-21T10:15:05;100014.91;;;17.25;80.51
52227;BME280;38190;59.928;10.446;2022-08-21T10:21:36;100014.16;;;18.40;74.82
52227;BME280;38190;59.928;10.446;2022-08-21T10:28:31;100017.16;;;18.32;67.86
52227;BME280;38190;59.928;10.446;2022-08-21T10:32:05;100011.22;;;18.25;68.73
52227;BME280;38190;59.928;10.446;2022-08-21T10:35:13;100019.00;;;17.83;70.29
52227;BME280;38190;59.928;10.446;2022-08-21T10:38:37;100012.53;;;17.66;70.39
52227;BME280;38190;59.928;10.446;2022-08-21T10:45:11;99998.53;;;18.32;71.48
52227;BME280;38190;59.928;10.446;2022-08-21T10:48:29;100011.41;;;17.97;73.75
52227;BME280;38190;59.928;10.446;2022-08-21T10:51:52;100027.00;;;18.06;74.47
52227;BME280;38190;59.928;10.446;2022-08-21T10:55:04;100014.25;;;17.93;72.96
52227;BME280;38190;59.928;10.446;2022-08-21T10:58:23;100012.53;;;18.14;72.52
52227;BME280;38190;59.928;10.446;2022-08-21T11:01:31;100006.13;;;18.19;74.14
52227;BME280;38190;59.928;10.446;2022-08-21T11:10:52;100009.88;;;17.43;75.10
52227;BME280;38190;59.928;10.446;2022-08-21T11:14:01;100013.53;;;17.39;73.85
52227;BME280;38190;59.928;10.446;2022-08-21T11:17:11;100010.56;;;17.48;72.94
52227;BME280;38190;59.928;10.446;2022-08-21T11:20:17;99998.31;;;18.81;67.66
52227;BME280;38190;59.928;10.446;2022-08-21T11:23:26;99998.16;;;18.86;66.54
52227;BME280;38190;59.928;10.446;2022-08-21T11:26:39;99994.28;;;20.31;65.26
52227;BME280;38190;59.928;10.446;2022-08-21T11:29:44;99997.34;;;19.25;63.19
52227;BME280;38190;59.928;10.446;2022-08-21T11:32:57;100000.59;;;19.52;63.00
52227;BME280;38190;59.928;10.446;2022-08-21T11:36:14;99988.31;;;19.68;62.27
52227;BME280;38190;59.928;10.446;2022-08-21T11:39:26;99971.72;;;19.82;65.09
52227;BME280;38190;59.928;10.446;2022-08-21T11:45:58;100006.94;;;18.43;68.21
52227;BME280;38190;59.928;10.446;2022-08-21T11:52:45;100003.34;;;18.89;68.55
52227;BME280;38190;59.928;10.446;2022-08-21T11:55:56;99997.94;;;19.91;64.48
52227;BME280;38190;59.928;10.446;2022-08-21T11:59:04;100002.78;;;20.39;66.30
52227;BME280;38190;59.928;10.446;2022-08-21T12:02:23;99981.53;;;20.91;64.99
52227;BME280;38190;59.928;10.446;2022-08-21T12:05:32;99994.53;;;21.32;61.55
52227;BME280;38190;59.928;10.446;2022-08-21T12:11:51;100002.31;;;19.53;66.35
52227;BME280;38190;59.928;10.446;2022-08-21T12:18:29;100011.13;;;19.74;68.13
52227;BME280;38190;59.928;10.446;2022-08-21T12:21:31;99990.53;;;20.35;62.40
52227;BME280;38190;59.928;10.446;2022-08-21T12:24:39;99985.06;;;20.92;63.65
52227;BME280;38190;59.928;10.446;2022-08-21T12:27:49;99997.84;;;20.85;61.66
52227;BME280;38190;59.928;10.446;2022-08-21T12:30:50;99990.78;;;21.01;60.96
52227;BME280;38190;59.928;10.446;2022-08-21T12:33:55;99986.66;;;20.96;60.17
52227;BME280;38190;59.928;10.446;2022-08-21T12:37:00;99981.56;;;21.42;61.00
52227;BME280;38190;59.928;10.446;2022-08-21T12:40:04;99992.91;;;20.95;55.89
52227;BME280;38190;59.928;10.446;2022-08-21T12:43:18;99989.34;;;19.45;61.48
52227;BME280;38190;59.928;10.446;2022-08-21T12:46:30;99978.28;;;18.72;63.82
52227;BME280;38190;59.928;10.446;2022-08-21T12:49:39;99980.09;;;18.50;62.93
52227;BME280;38190;59.928;10.446;2022-08-21T12:53:09;99987.97;;;19.36;64.34
52227;BME280;38190;59.928;10.446;2022-08-21T12:56:13;99989.13;;;20.27;60.22
52227;BME280;38190;59.928;10.446;2022-08-21T12:59:15;99987.41;;;20.07;60.08
52227;BME280;38190;59.928;10.446;2022-08-21T13:02:20;99983.47;;;19.58;61.20
52227;BME280;38190;59.928;10.446;2022-08-21T13:05:30;99981.31;;;19.66;60.20
52227;BME280;38190;59.928;10.446;2022-08-21T13:08:33;99968.38;;;20.15;58.50
52227;BME280;38190;59.928;10.446;2022-08-21T13:11:36;99962.75;;;19.64;60.20
52227;BME280;38190;59.928;10.446;2022-08-21T13:14:39;99954.91;;;20.55;59.45
52227;BME280;38190;59.928;10.446;2022-08-21T13:17:44;99953.22;;;20.35;57.67
52227;BME280;38190;59.928;10.446;2022-08-21T13:20:47;99948.50;;;20.22;58.40
52227;BME280;38190;59.928;10.446;2022-08-21T13:23:47;99953.44;;;19.94;60.86
52227;BME280;38190;59.928;10.446;2022-08-21T13:26:48;99949.97;;;19.91;61.70
52227;BME280;38190;59.928;10.446;2022-08-21T13:30:01;99945.50;;;21.00;56.52
52227;BME280;38190;59.928;10.446;2022-08-21T13:33:04;99940.78;;;21.23;55.58
52227;BME280;38190;59.928;10.446;2022-08-21T13:36:11;99940.94;;;20.13;62.56
52227;BME280;38190;59.928;10.446;2022-08-21T13:39:16;99930.47;;;19.32;63.42
52227;BME280;38190;59.928;10.446;2022-08-21T13:42:18;99937.16;;;18.81;66.68
52227;BME280;38190;59.928;10.446;2022-08-21T13:45:30;99941.56;;;18.60;66.09
52227;BME280;38190;59.928;10.446;2022-08-21T13:48:33;99946.84;;;18.19;68.72
52227;BME280;38190;59.928;10.446;2022-08-21T13:51:35;99952.53;;;17.62;72.35
52227;BME280;38190;59.928;10.446;2022-08-21T13:54:42;99959.41;;;17.19;75.83
52227;BME280;38190;59.928;10.446;2022-08-21T13:57:44;99958.34;;;16.46;82.16
52227;BME280;38190;59.928;10.446;2022-08-21T14:00:49;99966.28;;;15.91;87.32
52227;BME280;38190;59.928;10.446;2022-08-21T14:03:53;99967.59;;;15.45;91.36
52227;BME280;38190;59.928;10.446;2022-08-21T14:06:58;99988.81;;;15.10;98.08
52227;BME280;38190;59.928;10.446;2022-08-21T14:10:10;99987.69;;;14.88;95.29
52227;BME280;38190;59.928;10.446;2022-08-21T14:13:38;99983.00;;;14.63;92.76
52227;BME280;38190;59.928;10.446;2022-08-21T14:16:46;100027.47;;;14.43;100.00
52227;BME280;38190;59.928;10.446;2022-08-21T14:19:47;100035.72;;;14.29;99.72
52227;BME280;38190;59.928;10.446;2022-08-21T14:22:48;100031.06;;;14.01;95.64
52227;BME280;38190;59.928;10.446;2022-08-21T14:25:48;100006.16;;;14.13;93.53
52227;BME280;38190;59.928;10.446;2022-08-21T14:28:49;99990.19;;;14.56;95.63
52227;BME280;38190;59.928;10.446;2022-08-21T14:31:52;99994.28;;;14.32;93.20
52227;BME280;38190;59.928;10.446;2022-08-21T14:34:54;99987.25;;;13.94;92.60
52227;BME280;38190;59.928;10.446;2022-08-21T14:37:54;99964.97;;;13.65;88.75
52227;BME280;38190;59.928;10.446;2022-08-21T14:40:59;99966.31;;;13.44;96.06
52227;BME280;38190;59.928;10.446;2022-08-21T14:44:00;99953.34;;;13.32;90.91
52227;BME280;38190;59.928;10.446;2022-08-21T14:47:01;99939.16;;;13.81;93.87
52227;BME280;38190;59.928;10.446;2022-08-21T14:50:02;99946.56;;;14.02;92.80
52227;BME280;38190;59.928;10.446;2022-08-21T14:53:03;99943.84;;;13.66;91.36
52227;BME280;38190;59.928;10.446;2022-08-21T14:56:04;99941.84;;;13.37;95.39
52227;BME280;38190;59.928;10.446;2022-08-21T14:59:07;99959.56;;;13.73;96.41
52227;BME280;38190;59.928;10.446;2022-08-21T15:02:08;99967.34;;;13.79;96.88
52227;BME280;38190;59.928;10.446;2022-08-21T15:05:09;99970.06;;;13.74;90.62
52227;BME280;38190;59.928;10.446;2022-08-21T15:08:10;99974.34;;;13.80;91.10
52227;BME280;38190;59.928;10.446;2022-08-21T15:11:17;99986.03;;;14.09;92.83
52227;BME280;38190;59.928;10.446;2022-08-21T15:14:21;99984.88;;;14.58;82.92
52227;BME280;38190;59.928;10.446;2022-08-21T15:17:23;99988.06;;;14.72;80.24
52227;BME280;38190;59.928;10.446;2022-08-21T15:20:23;99980.19;;;14.69;83.85
52227;BME280;38190;59.928;10.446;2022-08-21T15:23:24;99978.97;;;14.83;84.51
52227;BME280;38190;59.928;10.446;2022-08-21T15:26:24;99979.91;;;14.82;82.82
52227;BME280;38190;59.928;10.446;2022-08-21T15:29:25;99976.97;;;15.25;81.58
52227;BME280;38190;59.928;10.446;2022-08-21T15:32:27;99974.47;;;15.19;77.28
52227;BME280;38190;59.928;10.446;2022-08-21T15:35:29;99970.47;;;15.04;80.25
52227;BME280;38190;59.928;10.446;2022-08-21T15:38:30;99968.22;;;15.23;81.47
52227;BME280;38190;59.928;10.446;2022-08-21T15:41:30;99962.84;;;15.58;79.74
52227;BME280;38190;59.928;10.446;2022-08-21T15:44:31;99968.50;;;16.05;77.48
52227;BME280;38190;59.928;10.446;2022-08-21T15:47:34;99973.28;;;16.22;76.29
52227;BME280;38190;59.928;10.446;2022-08-21T15:50:35;99960.66;;;16.30;72.04
52227;BME280;38190;59.928;10.446;2022-08-21T15:53:36;99959.16;;;16.21;74.00
52227;BME280;38190;59.928;10.446;2022-08-21T15:56:40;99959.88;;;16.27;74.75
52227;BME280;38190;59.928;10.446;2022-08-21T15:59:49;99965.50;;;16.44;77.84
52227;BME280;38190;59.928;10.446;2022-08-21T16:02:57;99978.66;;;16.19;84.10
52227;BME280;38190;59.928;10.446;2022-08-21T16:05:58;99960.19;;;16.44;79.76
52227;BME280;38190;59.928;10.446;2022-08-21T16:08:59;99961.94;;;16.72;71.58
52227;BME280;38190;59.928;10.446;2022-08-21T16:12:00;99965.06;;;16.30;74.18
52227;BME280;38190;59.928;10.446;2022-08-21T16:15:03;99958.91;;;16.29;72.01
52227;BME280;38190;59.928;10.446;2022-08-21T16:18:04;99959.72;;;15.73;74.77
52227;BME280;38190;59.928;10.446;2022-08-21T16:21:06;99962.16;;;15.20;78.92
52227;BME280;38190;59.928;10.446;2022-08-21T16:24:07;99963.34;;;15.41;76.17
52227;BME280;38190;59.928;10.446;2022-08-21T16:27:08;99973.38;;;15.28;76.65
52227;BME280;38190;59.928;10.446;2022-08-21T16:30:09;99958.34;;;15.30;78.27